Time;durP1;ratioP1;P1;durP2;ratioP2;P2;SDS_P1;SDS_P2;PMS_P1;PMS_P2;Temp;Humidity;BMP_temperature;BMP_pressure;BME280_temperature;BME280_humidity;BME280_pressure;Samples;Min_cycle;Max_cycle;Signal;HPM_P1;HPM_P2
2023/01/10 00:02:24;;;;;;;17.90;3.47;;;;;;;;;;5018283;28;20044;-76
2023/01/10 00:04:50;;;;;;;15.82;3.75;;;;;;;;;;5020461;28;20048;-76
2023/01/10 00:07:16;;;;;;;15.05;3.10;;;;;;;;;;5019491;28;20400;-76
2023/01/10 00:09:42;;;;;;;24.35;3.30;;;;;;;;;;5040310;28;20091;-76
2023/01/10 00:14:53;;;;;;;11.95;2.55;;;;;;;;;;5036913;28;22092;-76
2023/01/10 00:17:20;;;;;;;20.17;3.20;;;;;;;;;;5038390;28;20047;-76
2023/01/10 00:19:46;;;;;;;17.02;2.65;;;;;;;;;;5036056;28;20040;-76
2023/01/10 00:22:12;;;;;;;19.25;3.25;;;;;;;;;;5021131;28;20044;-77
2023/01/10 00:24:41;;;;;;;22.83;3.08;;;;;;;;;;5036061;28;20044;-76
2023/01/10 00:27:08;;;;;;;16.45;3.25;;;;;;;;;;5023857;28;20044;-76
2023/01/10 00:29:34;;;;;;;18.80;2.45;;;;;;;;;;5052584;28;20691;-76
2023/01/10 00:32:00;;;;;;;16.55;2.95;;;;;;;;;;5021091;28;20052;-76
2023/01/10 00:34:26;;;;;;;14.85;2.58;;;;;;;;;;5035781;28;20093;-76
2023/01/10 00:36:52;;;;;;;14.00;2.60;;;;;;;;;;5035170;28;20040;-76
2023/01/10 00:39:19;;;;;;;11.95;2.90;;;;;;;;;;5036502;28;20040;-76
2023/01/10 00:44:31;;;;;;;13.73;3.40;;;;;;;;;;5038151;28;20866;-76
2023/01/10 00:46:57;;;;;;;24.35;3.88;;;;;;;;;;5040948;28;21691;-75
2023/01/10 00:49:23;;;;;;;11.90;3.58;;;;;;;;;;5027556;28;20051;-76
2023/01/10 00:51:49;;;;;;;21.25;3.83;;;;;;;;;;5022061;28;20403;-76
2023/01/10 00:54:15;;;;;;;18.88;3.03;;;;;;;;;;5039355;28;20047;-75
2023/01/10 00:56:41;;;;;;;26.00;4.97;;;;;;;;;;5038782;28;20044;-76
2023/01/10 00:59:08;;;;;;;20.70;3.70;;;;;;;;;;5044152;28;20044;-76
2023/01/10 01:01:34;;;;;;;15.20;3.30;;;;;;;;;;5007464;28;20080;-75
2023/01/10 01:04:00;;;;;;;19.77;3.63;;;;;;;;;;5037209;28;20190;-75
2023/01/10 01:06:27;;;;;;;29.38;3.85;;;;;;;;;;5002278;28;20050;-76
2023/01/10 01:08:54;;;;;;;26.90;3.50;;;;;;;;;;5039766;28;20072;-76
2023/01/10 01:11:20;;;;;;;15.05;3.10;;;;;;;;;;5046148;28;20045;-74
2023/01/10 01:13:46;;;;;;;16.65;3.50;;;;;;;;;;5057631;28;20075;-76
2023/01/10 01:16:12;;;;;;;22.48;3.80;;;;;;;;;;5089572;28;20078;-75
2023/01/10 01:18:38;;;;;;;17.40;3.22;;;;;;;;;;5072627;28;20032;-74
2023/01/10 01:21:04;;;;;;;19.98;4.35;;;;;;;;;;5080061;28;20043;-75
2023/01/10 01:23:33;;;;;;;26.75;3.20;;;;;;;;;;5058725;28;20052;-75
2023/01/10 01:25:59;;;;;;;28.27;3.80;;;;;;;;;;5038678;28;20589;-75
2023/01/10 01:28:25;;;;;;;18.65;3.83;;;;;;;;;;5038782;28;20090;-75
2023/01/10 01:30:54;;;;;;;19.02;3.70;;;;;;;;;;5052501;28;20488;-75
2023/01/10 01:33:20;;;;;;;19.80;3.78;;;;;;;;;;5068904;27;20037;-75
2023/01/10 01:35:47;;;;;;;26.38;3.80;;;;;;;;;;5034413;28;21097;-75
2023/01/10 01:38:13;;;;;;;23.27;3.83;;;;;;;;;;5030751;28;20133;-75
2023/01/10 01:40:40;;;;;;;20.98;4.40;;;;;;;;;;5047165;28;20048;-74
2023/01/10 01:43:22;;;;;;;24.20;4.10;;;;;;;;;;5036370;28;20551;-75
2023/01/10 01:45:48;;;;;;;18.23;3.80;;;;;;;;;;5059560;28;20699;-75
2023/01/10 01:48:19;;;;;;;22.33;4.07;;;;;;;;;;5040045;28;20129;-74
2023/01/10 01:50:48;;;;;;;22.13;4.03;;;;;;;;;;5051135;28;20048;-76
2023/01/10 01:53:18;;;;;;;27.52;4.82;;;;;;;;;;5050114;28;20036;-76
2023/01/10 01:55:45;;;;;;;21.08;3.55;;;;;;;;;;5049652;28;20946;-76
2023/01/10 01:58:14;;;;;;;21.92;3.70;;;;;;;;;;5045388;28;20040;-76
2023/01/10 02:00:40;;;;;;;21.92;3.20;;;;;;;;;;5039874;28;20044;-74
2023/01/10 02:03:07;;;;;;;22.65;3.40;;;;;;;;;;5033459;28;20055;-74
2023/01/10 02:05:34;;;;;;;23.42;3.00;;;;;;;;;;5053052;28;20040;-76
2023/01/10 02:08:01;;;;;;;15.05;4.32;;;;;;;;;;5050185;28;20040;-76
2023/01/10 02:10:38;;;;;;;21.42;3.35;;;;;;;;;;5034813;28;20052;-76
2023/01/10 02:13:05;;;;;;;19.42;2.88;;;;;;;;;;5031063;28;20098;-74
2023/01/10 02:15:31;;;;;;;27.25;4.13;;;;;;;;;;5044096;28;20510;-74
2023/01/10 02:17:57;;;;;;;17.77;2.53;;;;;;;;;;5044337;28;20054;-75
2023/01/10 02:20:25;;;;;;;19.00;3.20;;;;;;;;;;5030341;28;20040;-75
2023/01/10 02:22:58;;;;;;;21.42;3.03;;;;;;;;;;5028993;28;20044;-75
2023/01/10 02:25:33;;;;;;;28.40;4.32;;;;;;;;;;5047203;28;20392;-75
2023/01/10 02:27:59;;;;;;;21.98;3.28;;;;;;;;;;5030834;28;20155;-75
2023/01/10 02:30:40;;;;;;;12.48;2.95;;;;;;;;;;5045841;28;20044;-75
2023/01/10 02:33:19;;;;;;;20.40;3.83;;;;;;;;;;5047533;28;20044;-74
2023/01/10 02:36:04;;;;;;;26.77;4.15;;;;;;;;;;5046981;28;20128;-74
2023/01/10 02:38:35;;;;;;;20.58;4.30;;;;;;;;;;5041591;28;20164;-74
2023/01/10 02:41:05;;;;;;;27.95;3.25;;;;;;;;;;5031076;28;20056;-74
2023/01/10 02:43:44;;;;;;;32.20;4.70;;;;;;;;;;5048168;28;20097;-74
2023/01/10 02:46:12;;;;;;;16.42;3.17;;;;;;;;;;5046971;28;20557;-74
2023/01/10 02:48:38;;;;;;;23.13;4.05;;;;;;;;;;5053200;28;20036;-74
2023/01/10 02:51:14;;;;;;;26.10;4.43;;;;;;;;;;5053421;28;22345;-74
2023/01/10 02:53:42;;;;;;;22.25;3.60;;;;;;;;;;5051755;28;20098;-75
2023/01/10 02:56:18;;;;;;;29.23;3.92;;;;;;;;;;5056112;28;20097;-75
2023/01/10 02:58:50;;;;;;;21.63;4.00;;;;;;;;;;5052707;28;20040;-74
2023/01/10 03:01:32;;;;;;;34.33;6.07;;;;;;;;;;5053972;28;20044;-74
2023/01/10 03:04:04;;;;;;;19.67;3.70;;;;;;;;;;5059011;28;22290;-74
2023/01/10 03:06:36;;;;;;;25.88;3.70;;;;;;;;;;5067098;28;20045;-74
2023/01/10 03:09:08;;;;;;;27.90;4.25;;;;;;;;;;5077387;28;20064;-74
2023/01/10 03:11:39;;;;;;;22.23;3.78;;;;;;;;;;5071262;28;20083;-75
2023/01/10 03:14:07;;;;;;;24.08;5.28;;;;;;;;;;5032869;28;20056;-74
2023/01/10 03:16:34;;;;;;;19.60;3.85;;;;;;;;;;5047939;28;20050;-74
2023/01/10 03:19:07;;;;;;;19.27;3.28;;;;;;;;;;5027272;28;20043;-74
2023/01/10 03:21:33;;;;;;;18.90;3.72;;;;;;;;;;5041981;28;20132;-74
2023/01/10 03:24:02;;;;;;;18.23;3.45;;;;;;;;;;5050483;28;20047;-75
2023/01/10 03:26:47;;;;;;;16.70;3.15;;;;;;;;;;5050104;28;20048;-75
2023/01/10 03:29:16;;;;;;;25.25;3.65;;;;;;;;;;5046120;28;20192;-74
2023/01/10 03:31:50;;;;;;;17.20;3.50;;;;;;;;;;5045523;28;20135;-74
2023/01/10 03:34:16;;;;;;;19.20;3.15;;;;;;;;;;5043402;28;20120;-74
2023/01/10 03:36:49;;;;;;;12.98;3.97;;;;;;;;;;5030418;28;20094;-74
2023/01/10 03:39:18;;;;;;;17.67;3.65;;;;;;;;;;5045041;28;20067;-74
2023/01/10 03:41:44;;;;;;;19.52;3.38;;;;;;;;;;5029545;28;20061;-74
2023/01/10 03:44:43;;;;;;;26.25;3.72;;;;;;;;;;5045708;28;20044;-74
2023/01/10 03:47:13;;;;;;;15.90;2.95;;;;;;;;;;5046038;28;20722;-74
2023/01/10 03:49:41;;;;;;;17.80;2.92;;;;;;;;;;5043518;28;20044;-74
2023/01/10 03:52:09;;;;;;;19.85;4.10;;;;;;;;;;5047013;28;20480;-74
2023/01/10 03:54:35;;;;;;;23.27;3.78;;;;;;;;;;5028807;28;20396;-74
2023/01/10 03:57:01;;;;;;;32.97;4.32;;;;;;;;;;5044792;28;20575;-74
2023/01/10 03:59:27;;;;;;;23.50;3.20;;;;;;;;;;5030274;28;20075;-74
2023/01/10 04:01:56;;;;;;;18.98;3.80;;;;;;;;;;5046664;28;20524;-75
2023/01/10 04:04:22;;;;;;;20.42;3.97;;;;;;;;;;5044344;28;20588;-74
2023/01/10 04:06:48;;;;;;;24.55;3.42;;;;;;;;;;5029002;28;20040;-74
2023/01/10 04:09:14;;;;;;;23.15;3.75;;;;;;;;;;5043921;28;20164;-73
2023/01/10 04:11:40;;;;;;;18.02;3.38;;;;;;;;;;5043854;28;20044;-74
2023/01/10 04:14:06;;;;;;;29.23;3.88;;;;;;;;;;5060145;28;20564;-75
2023/01/10 04:16:32;;;;;;;20.48;3.25;;;;;;;;;;5042984;28;20037;-74
2023/01/10 04:18:59;;;;;;;24.95;3.80;;;;;;;;;;5015305;28;20047;-75
2023/01/10 04:21:25;;;;;;;21.33;4.53;;;;;;;;;;5043866;28;20044;-74
2023/01/10 04:23:51;;;;;;;31.17;4.50;;;;;;;;;;5041404;28;20094;-74
2023/01/10 04:26:17;;;;;;;32.70;4.28;;;;;;;;;;5025342;28;20139;-74
2023/01/10 04:28:43;;;;;;;15.75;3.28;;;;;;;;;;5041983;28;20043;-75
2023/01/10 04:31:09;;;;;;;31.20;4.72;;;;;;;;;;5031020;28;20078;-74
2023/01/10 04:33:35;;;;;;;18.52;4.18;;;;;;;;;;5029639;28;20454;-75
2023/01/10 04:36:01;;;;;;;20.08;3.67;;;;;;;;;;5032548;28;20059;-75
2023/01/10 04:38:27;;;;;;;18.13;4.28;;;;;;;;;;5045968;28;20036;-75
2023/01/10 04:40:54;;;;;;;17.65;3.35;;;;;;;;;;5027788;28;20396;-74
2023/01/10 04:43:20;;;;;;;21.02;4.10;;;;;;;;;;5042275;28;20059;-75
2023/01/10 04:45:47;;;;;;;28.75;4.68;;;;;;;;;;5055669;28;20036;-75
2023/01/10 04:48:13;;;;;;;26.60;4.20;;;;;;;;;;5043089;28;20040;-75
2023/01/10 04:50:39;;;;;;;35.03;5.07;;;;;;;;;;5081250;28;20047;-75
2023/01/10 04:53:05;;;;;;;23.35;5.65;;;;;;;;;;5070729;28;20040;-74
2023/01/10 04:55:31;;;;;;;27.90;3.67;;;;;;;;;;5059214;28;20623;-75
2023/01/10 04:57:59;;;;;;;17.65;3.75;;;;;;;;;;5034805;28;20048;-74
2023/01/10 05:00:26;;;;;;;27.80;3.80;;;;;;;;;;5052545;28;20131;-74
2023/01/10 05:02:56;;;;;;;37.10;4.20;;;;;;;;;;5051204;28;20881;-74
2023/01/10 05:05:22;;;;;;;22.83;4.32;;;;;;;;;;5033571;28;20055;-75
2023/01/10 05:07:48;;;;;;;27.52;4.30;;;;;;;;;;5049853;28;20151;-74
2023/01/10 05:10:14;;;;;;;25.65;4.43;;;;;;;;;;5050787;28;20055;-74
2023/01/10 05:12:41;;;;;;;27.00;3.53;;;;;;;;;;5054298;28;21698;-74
2023/01/10 05:15:07;;;;;;;23.25;3.78;;;;;;;;;;5056931;28;20949;-74
2023/01/10 05:17:33;;;;;;;21.38;3.83;;;;;;;;;;5055845;28;20506;-74
2023/01/10 05:19:59;;;;;;;19.83;3.65;;;;;;;;;;5054955;28;20178;-74
2023/01/10 05:22:25;;;;;;;26.70;3.65;;;;;;;;;;5055294;28;20050;-74
2023/01/10 05:24:51;;;;;;;19.38;3.40;;;;;;;;;;5055447;28;20064;-75
2023/01/10 05:27:17;;;;;;;24.63;4.10;;;;;;;;;;5054369;28;21508;-75
2023/01/10 05:29:44;;;;;;;33.08;5.15;;;;;;;;;;5053586;28;20035;-75
2023/01/10 05:32:10;;;;;;;21.65;3.85;;;;;;;;;;5039211;28;20055;-74
2023/01/10 05:34:36;;;;;;;17.58;3.20;;;;;;;;;;5055749;28;20046;-75
2023/01/10 05:37:02;;;;;;;26.20;4.60;;;;;;;;;;5057204;28;20511;-75
2023/01/10 05:39:28;;;;;;;23.10;4.18;;;;;;;;;;5055816;28;20547;-74
2023/01/10 05:41:54;;;;;;;20.95;3.80;;;;;;;;;;5050954;28;20088;-75
2023/01/10 05:44:20;;;;;;;18.27;4.43;;;;;;;;;;5067503;28;20391;-74
2023/01/10 05:46:46;;;;;;;21.75;4.35;;;;;;;;;;5048363;28;20071;-74
2023/01/10 05:49:12;;;;;;;22.27;4.70;;;;;;;;;;5048646;28;20056;-74
2023/01/10 05:51:38;;;;;;;22.77;4.20;;;;;;;;;;5052663;28;20086;-74
2023/01/10 05:54:05;;;;;;;16.92;3.55;;;;;;;;;;5032542;28;20041;-75
2023/01/10 05:56:31;;;;;;;20.48;4.40;;;;;;;;;;5047410;28;20044;-74
2023/01/10 05:58:57;;;;;;;20.55;3.78;;;;;;;;;;5048316;28;20068;-75
2023/01/10 06:01:23;;;;;;;21.73;4.63;;;;;;;;;;5050812;28;20052;-74
2023/01/10 06:03:49;;;;;;;23.48;3.95;;;;;;;;;;5035160;28;21265;-74
2023/01/10 06:06:15;;;;;;;19.73;3.78;;;;;;;;;;5052645;28;20183;-74
2023/01/10 06:08:41;;;;;;;18.45;4.28;;;;;;;;;;5050576;28;20048;-74
2023/01/10 06:11:07;;;;;;;23.75;4.00;;;;;;;;;;5057848;28;20047;-74
2023/01/10 06:13:33;;;;;;;21.58;4.40;;;;;;;;;;5067834;27;20500;-74
2023/01/10 06:15:59;;;;;;;16.67;4.70;;;;;;;;;;5050507;28;20044;-74
2023/01/10 06:18:26;;;;;;;15.65;2.90;;;;;;;;;;5050251;28;20676;-74
2023/01/10 06:20:52;;;;;;;26.17;3.75;;;;;;;;;;5050472;28;20052;-73
2023/01/10 06:23:18;;;;;;;20.90;3.92;;;;;;;;;;5049623;28;20037;-75
2023/01/10 06:25:44;;;;;;;15.23;3.28;;;;;;;;;;5043711;28;20044;-74
2023/01/10 06:28:12;;;;;;;19.88;3.75;;;;;;;;;;5067622;28;20049;-74
2023/01/10 06:30:39;;;;;;;14.35;3.53;;;;;;;;;;5044528;28;20117;-74
2023/01/10 06:33:06;;;;;;;23.77;3.47;;;;;;;;;;5051538;28;20488;-74
2023/01/10 06:35:33;;;;;;;19.77;3.83;;;;;;;;;;5068359;28;20734;-74
2023/01/10 06:37:59;;;;;;;28.98;4.13;;;;;;;;;;5051193;28;20154;-74
2023/01/10 06:40:25;;;;;;;15.05;3.17;;;;;;;;;;5052682;28;20428;-74
2023/01/10 06:42:51;;;;;;;17.73;3.38;;;;;;;;;;5050235;28;20036;-74
2023/01/10 06:45:18;;;;;;;17.20;3.55;;;;;;;;;;5033625;28;21541;-73
2023/01/10 06:47:44;;;;;;;20.38;3.35;;;;;;;;;;5049825;28;20796;-74
2023/01/10 06:50:11;;;;;;;23.85;3.95;;;;;;;;;;5051957;28;20046;-73
2023/01/10 06:52:37;;;;;;;14.75;3.15;;;;;;;;;;5055195;28;20036;-74
2023/01/10 06:55:03;;;;;;;21.85;5.38;;;;;;;;;;5052405;28;20036;-74
2023/01/10 06:57:32;;;;;;;18.67;3.75;;;;;;;;;;5036016;28;20044;-74
2023/01/10 06:59:58;;;;;;;12.52;3.53;;;;;;;;;;5039006;28;20045;-74
2023/01/10 07:02:24;;;;;;;17.30;3.13;;;;;;;;;;5051069;28;20047;-74
2023/01/10 07:04:51;;;;;;;17.60;4.40;;;;;;;;;;5050071;28;20435;-74
2023/01/10 07:07:17;;;;;;;19.25;4.07;;;;;;;;;;5038364;28;20044;-74
2023/01/10 07:09:43;;;;;;;19.00;3.47;;;;;;;;;;5037995;28;20154;-74
2023/01/10 07:12:09;;;;;;;20.50;4.65;;;;;;;;;;5048312;28;20079;-74
2023/01/10 07:14:35;;;;;;;23.40;4.22;;;;;;;;;;5046057;28;20036;-74
2023/01/10 07:17:01;;;;;;;16.45;4.57;;;;;;;;;;5047732;28;21479;-74
2023/01/10 07:19:27;;;;;;;20.48;4.40;;;;;;;;;;5048291;28;20049;-74
2023/01/10 07:21:53;;;;;;;26.13;6.05;;;;;;;;;;5054061;28;20045;-74
2023/01/10 07:24:19;;;;;;;22.58;3.85;;;;;;;;;;5020799;28;20484;-74
2023/01/10 07:26:45;;;;;;;26.25;4.53;;;;;;;;;;5050780;28;20040;-75
2023/01/10 07:29:11;;;;;;;22.48;3.60;;;;;;;;;;5037848;28;20142;-74
2023/01/10 07:31:38;;;;;;;14.38;3.50;;;;;;;;;;5048742;28;20045;-74
2023/01/10 07:34:04;;;;;;;16.83;3.55;;;;;;;;;;5052246;28;20036;-75
2023/01/10 07:36:30;;;;;;;16.60;4.65;;;;;;;;;;5048111;28;20067;-75
2023/01/10 07:38:56;;;;;;;24.27;5.25;;;;;;;;;;5048304;28;20066;-74
2023/01/10 07:41:22;;;;;;;25.77;4.68;;;;;;;;;;5048657;28;20090;-75
2023/01/10 07:43:48;;;;;;;17.48;4.20;;;;;;;;;;5045968;28;20451;-75
2023/01/10 07:46:15;;;;;;;15.93;4.82;;;;;;;;;;5045476;28;20117;-75
2023/01/10 07:48:41;;;;;;;22.27;4.40;;;;;;;;;;5051917;28;20134;-74
2023/01/10 07:51:07;;;;;;;16.25;4.35;;;;;;;;;;5041459;28;20148;-75
2023/01/10 07:53:33;;;;;;;18.02;4.25;;;;;;;;;;5053713;28;21279;-75
2023/01/10 07:56:03;;;;;;;15.60;3.72;;;;;;;;;;5036636;28;20044;-75
2023/01/10 07:58:29;;;;;;;18.00;3.88;;;;;;;;;;5044765;28;20075;-75
2023/01/10 08:00:59;;;;;;;22.92;4.60;;;;;;;;;;5049225;28;20048;-75
2023/01/10 08:03:26;;;;;;;21.25;4.38;;;;;;;;;;5067658;28;20040;-75
2023/01/10 08:05:59;;;;;;;24.73;3.95;;;;;;;;;;5064450;28;20040;-75
2023/01/10 08:08:25;;;;;;;31.08;5.25;;;;;;;;;;5038073;28;20044;-75
2023/01/10 08:10:51;;;;;;;18.90;4.45;;;;;;;;;;5042080;28;20416;-75
2023/01/10 08:13:17;;;;;;;22.02;5.38;;;;;;;;;;5034250;28;20114;-75
2023/01/10 08:15:44;;;;;;;24.42;5.15;;;;;;;;;;5042309;28;20538;-75
2023/01/10 08:18:10;;;;;;;25.02;5.50;;;;;;;;;;5043534;28;20052;-75
2023/01/10 08:20:36;;;;;;;28.80;5.95;;;;;;;;;;5058256;28;20067;-75
2023/01/10 08:23:02;;;;;;;23.67;5.72;;;;;;;;;;5052982;28;20139;-75
2023/01/10 08:25:28;;;;;;;22.40;5.60;;;;;;;;;;5039001;28;20390;-75
2023/01/10 08:27:55;;;;;;;19.20;4.78;;;;;;;;;;5057280;28;20545;-75
2023/01/10 08:30:21;;;;;;;29.45;6.15;;;;;;;;;;5037680;28;20439;-75
2023/01/10 08:32:48;;;;;;;32.25;6.00;;;;;;;;;;5054876;28;20138;-75
2023/01/10 08:35:14;;;;;;;25.67;5.72;;;;;;;;;;5046481;28;20131;-75
2023/01/10 08:37:40;;;;;;;23.27;5.40;;;;;;;;;;5044482;28;20553;-75
2023/01/10 08:40:06;;;;;;;33.58;6.65;;;;;;;;;;5054970;28;20036;-75
2023/01/10 08:42:33;;;;;;;29.70;5.53;;;;;;;;;;5073679;27;20044;-75
2023/01/10 08:44:59;;;;;;;36.63;6.78;;;;;;;;;;5057960;28;20044;-75
2023/01/10 08:47:26;;;;;;;17.85;5.55;;;;;;;;;;5040263;28;20089;-75
2023/01/10 08:49:52;;;;;;;31.42;5.88;;;;;;;;;;5053588;28;20039;-75
2023/01/10 08:52:18;;;;;;;34.38;7.60;;;;;;;;;;5056805;28;20133;-75
2023/01/10 08:54:44;;;;;;;24.38;4.78;;;;;;;;;;5040302;28;20071;-75
2023/01/10 08:57:10;;;;;;;29.73;6.97;;;;;;;;;;5041815;28;20059;-74
2023/01/10 08:59:36;;;;;;;31.30;6.38;;;;;;;;;;5040955;28;20040;-75
2023/01/10 09:02:03;;;;;;;37.47;6.68;;;;;;;;;;5054776;28;20040;-75
2023/01/10 09:04:30;;;;;;;29.08;5.25;;;;;;;;;;5042566;28;21586;-75
2023/01/10 09:06:56;;;;;;;37.28;6.75;;;;;;;;;;5054521;28;20186;-75
2023/01/10 09:09:23;;;;;;;28.98;6.28;;;;;;;;;;5056896;28;20055;-75
2023/01/10 09:11:49;;;;;;;24.40;5.85;;;;;;;;;;5058220;28;20101;-75
2023/01/10 09:14:15;;;;;;;37.60;8.18;;;;;;;;;;5055071;28;20040;-75
2023/01/10 09:16:41;;;;;;;32.95;6.82;;;;;;;;;;5055108;28;20044;-75
2023/01/10 09:19:07;;;;;;;31.23;6.70;;;;;;;;;;5057385;28;20145;-75
2023/01/10 09:21:33;;;;;;;31.90;6.63;;;;;;;;;;5022705;28;20049;-75
2023/01/10 09:23:59;;;;;;;31.15;5.82;;;;;;;;;;5026506;28;20102;-75
2023/01/10 09:26:25;;;;;;;41.85;7.30;;;;;;;;;;5043744;28;20047;-75
2023/01/10 09:28:51;;;;;;;33.33;7.53;;;;;;;;;;5053484;28;20523;-75
2023/01/10 09:31:17;;;;;;;34.08;6.18;;;;;;;;;;5071019;28;20086;-75
2023/01/10 09:33:45;;;;;;;37.95;5.90;;;;;;;;;;5080973;28;20041;-75
2023/01/10 09:36:14;;;;;;;32.05;5.93;;;;;;;;;;5054032;28;21908;-75
2023/01/10 09:38:40;;;;;;;30.55;6.53;;;;;;;;;;5066009;28;20055;-75
2023/01/10 09:41:13;;;;;;;38.05;7.00;;;;;;;;;;5066245;28;20496;-75
2023/01/10 09:43:58;;;;;;;41.15;7.65;;;;;;;;;;5038930;28;20441;-75
2023/01/10 09:46:24;;;;;;;;;;;;;;;;;;5049891;28;20172;-75
2023/01/10 09:49:06;;;;;;;28.80;4.95;;;;;;;;;;5058730;28;19985;-75
2023/01/10 09:51:34;;;;;;;27.08;4.72;;;;;;;;;;5053276;28;20145;-75
2023/01/10 09:54:03;;;;;;;22.45;5.22;;;;;;;;;;5055604;28;20089;-75
2023/01/10 09:56:29;;;;;;;23.40;5.25;;;;;;;;;;5073113;28;20044;-76
2023/01/10 09:58:56;;;;;;;25.55;4.60;;;;;;;;;;5058608;28;20049;-75
2023/01/10 10:01:27;;;;;;;25.92;5.20;;;;;;;;;;5040912;28;20040;-75
2023/01/10 10:03:53;;;;;;;26.92;4.82;;;;;;;;;;5058106;28;20369;-75
2023/01/10 10:06:21;;;;;;;26.05;4.47;;;;;;;;;;5059516;28;20392;-75
2023/01/10 10:08:47;;;;;;;23.08;4.75;;;;;;;;;;5057514;28;20465;-74
2023/01/10 10:11:30;;;;;;;28.83;4.57;;;;;;;;;;5023531;28;20513;-78
2023/01/10 10:14:14;;;;;;;16.80;4.20;;;;;;;;;;5040980;28;20425;-79
2023/01/10 10:16:52;;;;;;;34.10;4.55;;;;;;;;;;5065777;28;20048;-78
2023/01/10 10:19:27;;;;;;;22.58;4.63;;;;;;;;;;5043383;28;20459;-79
2023/01/10 10:22:02;;;;;;;33.13;4.78;;;;;;;;;;5061624;28;20346;-78
2023/01/10 10:24:31;;;;;;;23.48;4.43;;;;;;;;;;5059521;28;20117;-78
2023/01/10 10:26:59;;;;;;;29.75;5.03;;;;;;;;;;5061451;28;20055;-79
2023/01/10 10:29:40;;;;;;;21.90;4.55;;;;;;;;;;5062173;28;20033;-79
2023/01/10 10:32:07;;;;;;;24.10;4.25;;;;;;;;;;5063402;28;20044;-79
2023/01/10 10:34:36;;;;;;;31.40;5.00;;;;;;;;;;5059972;28;20048;-79
2023/01/10 10:37:15;;;;;;;20.83;5.05;;;;;;;;;;5064018;28;20055;-79
2023/01/10 10:39:44;;;;;;;25.38;5.40;;;;;;;;;;5060726;28;20051;-79
2023/01/10 10:42:15;;;;;;;23.48;4.53;;;;;;;;;;5059283;28;20047;-80
2023/01/10 10:44:59;;;;;;;25.02;5.38;;;;;;;;;;5051629;28;20484;-80
2023/01/10 10:47:27;;;;;;;24.58;5.32;;;;;;;;;;5051978;28;20040;-80
2023/01/10 10:50:05;;;;;;;26.30;5.32;;;;;;;;;;5069917;28;20238;-80
2023/01/10 10:52:34;;;;;;;28.65;5.25;;;;;;;;;;5054748;28;20051;-80
2023/01/10 10:55:00;;;;;;;22.65;4.80;;;;;;;;;;5054627;28;20444;-79
2023/01/10 10:57:31;;;;;;;17.13;4.50;;;;;;;;;;5056762;28;20095;-79
2023/01/10 10:59:57;;;;;;;27.00;5.53;;;;;;;;;;5053919;28;20052;-80
2023/01/10 11:02:26;;;;;;;31.38;5.80;;;;;;;;;;5053472;28;20070;-79
2023/01/10 11:04:54;;;;;;;33.42;5.43;;;;;;;;;;5056151;28;20063;-79
2023/01/10 11:07:21;;;;;;;22.27;5.20;;;;;;;;;;5054401;28;20093;-79
2023/01/10 11:09:55;;;;;;;33.30;5.55;;;;;;;;;;5054104;28;20074;-79
2023/01/10 11:12:21;;;;;;;;;;;;;;;;;;5083463;28;20044;-80
2023/01/10 11:14:50;;;;;;;37.22;6.30;;;;;;;;;;5084225;28;19958;-80
2023/01/10 11:17:24;;;;;;;22.60;4.88;;;;;;;;;;5046204;28;20048;-79
2023/01/10 11:20:14;;;;;;;31.73;5.88;;;;;;;;;;5061962;28;20387;-80
2023/01/10 11:22:52;;;;;;;23.00;5.25;;;;;;;;;;5049046;28;20529;-79
2023/01/10 11:25:20;;;;;;;22.02;5.85;;;;;;;;;;5054086;28;20417;-80
2023/01/10 11:27:49;;;;;;;28.77;5.85;;;;;;;;;;5054282;28;20142;-79
2023/01/10 11:30:21;;;;;;;25.45;6.78;;;;;;;;;;5053595;28;20047;-79
2023/01/10 11:33:00;;;;;;;24.42;4.90;;;;;;;;;;5050384;28;20052;-79
2023/01/10 11:35:29;;;;;;;23.88;5.53;;;;;;;;;;5054742;28;20054;-79
2023/01/10 11:38:06;;;;;;;25.90;5.43;;;;;;;;;;5052561;28;20349;-79
2023/01/10 11:40:32;;;;;;;22.17;4.78;;;;;;;;;;5052535;28;20047;-78
2023/01/10 11:42:59;;;;;;;29.63;5.57;;;;;;;;;;5053201;28;20044;-78
2023/01/10 11:45:25;;;;;;;32.05;5.70;;;;;;;;;;5051269;28;20166;-78
2023/01/10 11:47:54;;;;;;;34.53;8.15;;;;;;;;;;5057205;28;20308;-78
2023/01/10 11:50:25;;;;;;;36.33;7.75;;;;;;;;;;5050494;28;20134;-78
2023/01/10 11:52:51;;;;;;;25.90;6.00;;;;;;;;;;5051784;28;20044;-78
2023/01/10 11:55:19;;;;;;;29.27;6.57;;;;;;;;;;5050291;28;20052;-79
2023/01/10 11:57:45;;;;;;;26.60;6.65;;;;;;;;;;5051352;28;20040;-79
2023/01/10 12:00:12;;;;;;;26.85;6.25;;;;;;;;;;5052873;28;20073;-78
2023/01/10 12:02:42;;;;;;;22.67;6.45;;;;;;;;;;5052392;28;20043;-80
2023/01/10 12:05:17;;;;;;;35.97;8.15;;;;;;;;;;5035589;28;20123;-79
2023/01/10 12:07:53;;;;;;;29.05;7.82;;;;;;;;;;5052386;28;20040;-80
2023/01/10 12:10:20;;;;;;;28.45;6.85;;;;;;;;;;5035027;28;20067;-80
2023/01/10 12:12:56;;;;;;;27.13;6.28;;;;;;;;;;5051388;28;20063;-79
2023/01/10 12:15:33;;;;;;;25.23;6.60;;;;;;;;;;5053659;28;20044;-79
2023/01/10 12:18:01;;;;;;;28.50;6.88;;;;;;;;;;5032409;28;20036;-78
2023/01/10 12:20:32;;;;;;;35.65;7.32;;;;;;;;;;5050112;28;20051;-78
2023/01/10 12:23:00;;;;;;;25.80;8.10;;;;;;;;;;5051916;28;20036;-79
2023/01/10 12:25:34;;;;;;;27.60;7.88;;;;;;;;;;5040555;28;20048;-78
2023/01/10 12:28:00;;;;;;;23.45;6.32;;;;;;;;;;5052095;28;20075;-79
2023/01/10 12:30:40;;;;;;;33.92;9.00;;;;;;;;;;5051198;28;20384;-80
2023/01/10 12:33:10;;;;;;;28.10;8.23;;;;;;;;;;5054465;28;20048;-80
2023/01/10 12:35:36;;;;;;;38.15;9.35;;;;;;;;;;5035479;28;20526;-79
2023/01/10 12:44:09;;;;;;;32.78;11.18;;;;;;;;;;5020802;28;20062;-80
2023/01/10 12:44:13;;;;;;;42.17;12.10;;;;;;;;;;5057202;28;20052;-78
2023/01/10 12:46:48;;;;;;;24.42;10.05;;;;;;;;;;5057809;28;20078;-79
2023/01/10 12:49:21;;;;;;;35.20;11.77;;;;;;;;;;5058810;28;20561;-79
2023/01/10 12:51:49;;;;;;;35.47;11.23;;;;;;;;;;5081393;28;20127;-80
2023/01/10 12:54:19;;;;;;;34.95;11.00;;;;;;;;;;5079221;28;21742;-80
2023/01/10 12:56:46;;;;;;;27.20;9.23;;;;;;;;;;5075854;28;20134;-81
2023/01/10 12:59:22;;;;;;;36.58;9.25;;;;;;;;;;5063935;28;20045;-80
2023/01/10 13:01:51;;;;;;;20.27;7.30;;;;;;;;;;5037791;28;20048;-79
2023/01/10 13:04:21;;;;;;;27.88;8.38;;;;;;;;;;5053255;28;20067;-79
2023/01/10 13:06:48;;;;;;;23.77;7.60;;;;;;;;;;5056865;28;20082;-79
2023/01/10 13:09:17;;;;;;;41.78;8.27;;;;;;;;;;5021650;28;20372;-80
2023/01/10 13:12:01;;;;;;;25.35;7.55;;;;;;;;;;5057979;28;20059;-80
2023/01/10 13:14:27;;;;;;;;;;;;;;;;;;5046904;28;20044;-79
2023/01/10 13:17:02;;;;;;;30.02;6.80;;;;;;;;;;5052182;28;19924;-80
2023/01/10 13:19:28;;;;;;;25.23;6.00;;;;;;;;;;5057245;28;20048;-80
2023/01/10 13:22:12;;;;;;;30.40;7.10;;;;;;;;;;5044166;28;20483;-79
2023/01/10 13:24:38;;;;;;;32.50;6.97;;;;;;;;;;5060087;28;20489;-81
2023/01/10 13:27:04;;;;;;;26.05;5.47;;;;;;;;;;5032760;28;20382;-81
2023/01/10 13:29:37;;;;;;;22.95;6.43;;;;;;;;;;5061204;28;20040;-81
2023/01/10 13:32:15;;;;;;;23.10;5.80;;;;;;;;;;5055140;28;20046;-81
2023/01/10 13:34:41;;;;;;;28.40;6.15;;;;;;;;;;5068636;28;20487;-81
2023/01/10 13:37:12;;;;;;;26.10;6.95;;;;;;;;;;5060655;28;20032;-80
2023/01/10 13:39:47;;;;;;;27.67;5.72;;;;;;;;;;5062575;28;20051;-80
2023/01/10 13:45:12;;;;;;;26.83;5.65;;;;;;;;;;5062348;28;20071;-81
2023/01/10 13:47:47;;;;;;;34.97;6.03;;;;;;;;;;5060872;28;20101;-80
2023/01/10 13:50:22;;;;;;;30.77;5.57;;;;;;;;;;5060830;28;20045;-80
2023/01/10 13:53:13;;;;;;;17.63;5.28;;;;;;;;;;5059739;28;20826;-80
2023/01/10 13:55:44;;;;;;;22.83;5.47;;;;;;;;;;5052537;28;20058;-80
2023/01/10 13:58:18;;;;;;;23.50;5.72;;;;;;;;;;5060867;28;20434;-80
2023/01/10 14:03:50;;;;;;;33.30;7.78;;;;;;;;;;5059955;28;20287;-80
2023/01/10 14:06:29;;;;;;;25.95;5.88;;;;;;;;;;5060809;28;20162;-79
2023/01/10 14:08:56;;;;;;;33.90;7.93;;;;;;;;;;5040566;28;20053;-80
2023/01/10 14:11:28;;;;;;;29.42;6.68;;;;;;;;;;5059757;28;20124;-80
2023/01/10 14:13:59;;;;;;;25.58;5.60;;;;;;;;;;5047018;28;20067;-81
2023/01/10 14:16:28;;;;;;;31.80;8.15;;;;;;;;;;5059470;28;20198;-80
2023/01/10 14:18:54;;;;;;;22.58;5.57;;;;;;;;;;5056771;28;20043;-80
2023/01/10 14:21:25;;;;;;;21.42;5.63;;;;;;;;;;5040400;28;20044;-80
2023/01/10 14:23:52;;;;;;;25.55;5.75;;;;;;;;;;5056623;28;20498;-80
2023/01/10 14:26:26;;;;;;;27.52;7.03;;;;;;;;;;5056743;28;20076;-81
2023/01/10 14:28:52;;;;;;;25.90;5.30;;;;;;;;;;5061834;28;20065;-80
2023/01/10 14:31:19;;;;;;;30.30;6.53;;;;;;;;;;5037552;28;20044;-80
2023/01/10 14:33:46;;;;;;;31.02;6.30;;;;;;;;;;5080594;28;20044;-80
2023/01/10 14:36:21;;;;;;;17.35;5.20;;;;;;;;;;5077809;28;20040;-80
2023/01/10 14:38:49;;;;;;;32.45;6.53;;;;;;;;;;5076034;28;20112;-80
2023/01/10 14:41:21;;;;;;;32.88;6.68;;;;;;;;;;5074136;28;20044;-79
2023/01/10 14:43:52;;;;;;;21.10;4.95;;;;;;;;;;5055164;28;20155;-80
2023/01/10 14:46:21;;;;;;;18.35;5.60;;;;;;;;;;5048463;28;20159;-80
2023/01/10 14:48:48;;;;;;;26.60;6.40;;;;;;;;;;5075377;27;20503;-80
2023/01/10 14:51:15;;;;;;;29.75;5.95;;;;;;;;;;5057486;28;20709;-80
2023/01/10 14:53:41;;;;;;;23.60;4.85;;;;;;;;;;5057626;28;20044;-80
2023/01/10 14:56:21;;;;;;;30.83;5.30;;;;;;;;;;5059236;28;20087;-80